Time;durP1;ratioP1;P1;durP2;ratioP2;P2;SDS_P1;SDS_P2;PMS_P1;PMS_P2;Temp;Humidity;BMP_temperature;BMP_pressure;BME280_temperature;BME280_humidity;BME280_pressure;Samples;Min_cycle;Max_cycle;Signal;HPM_P1;HPM_P2
2022/03/02 00:00:20;;;;;;;2.17;1.10;;;14.50;99.90;;;;;;5061121;28;20475;-69
2022/03/02 00:03:01;;;;;;;1.10;1.00;;;14.40;99.90;;;;;;5061358;28;20506;-70
2022/03/02 00:05:32;;;;;;;2.57;1.30;;;14.40;99.90;;;;;;5061101;28;20461;-71
2022/03/02 00:08:04;;;;;;;1.60;1.03;;;14.50;99.90;;;;;;5058607;28;20950;-70
2022/03/02 00:10:35;;;;;;;4.53;1.20;;;14.30;99.90;;;;;;5063411;28;20444;-70
2022/03/02 00:13:08;;;;;;;1.07;0.97;;;14.30;99.90;;;;;;5061905;28;20484;-70
2022/03/02 00:15:39;;;;;;;2.00;1.23;;;14.30;99.90;;;;;;5063052;28;21175;-70
2022/03/02 00:18:10;;;;;;;1.13;1.03;;;14.30;99.90;;;;;;5062693;28;20462;-70
2022/03/02 00:20:41;;;;;;;2.90;1.20;;;14.30;99.90;;;;;;5060697;28;20452;-70
2022/03/02 00:23:13;;;;;;;2.50;1.03;;;14.30;99.90;;;;;;5062762;28;20520;-70
2022/03/02 00:25:43;;;;;;;1.53;1.10;;;14.10;99.90;;;;;;5062933;28;20471;-70
2022/03/02 00:28:21;;;;;;;1.40;1.30;;;14.10;99.90;;;;;;5062166;28;20456;-69
2022/03/02 00:30:52;;;;;;;3.40;1.80;;;14.20;99.90;;;;;;5063017;28;20472;-70
2022/03/02 00:33:24;;;;;;;2.43;1.80;;;14.10;99.90;;;;;;5062277;28;20456;-70
2022/03/02 00:35:54;;;;;;;1.97;1.40;;;14.00;99.90;;;;;;5061550;28;20500;-70
2022/03/02 00:38:25;;;;;;;2.00;1.50;;;14.00;99.90;;;;;;5063073;28;20474;-70
2022/03/02 00:40:57;;;;;;;3.13;2.23;;;14.00;99.90;;;;;;5061523;28;20452;-70
2022/03/02 00:43:29;;;;;;;2.87;2.20;;;14.00;99.90;;;;;;5042160;28;20437;-70
2022/03/02 00:46:01;;;;;;;2.27;2.07;;;13.90;99.90;;;;;;5060965;28;20460;-70
2022/03/02 00:48:32;;;;;;;2.63;1.93;;;13.90;99.90;;;;;;5062401;28;20448;-70
2022/03/02 00:51:04;;;;;;;2.30;1.57;;;13.80;99.90;;;;;;5069043;28;20519;-70
2022/03/02 00:53:35;;;;;;;2.93;1.37;;;13.80;99.90;;;;;;5062196;28;20441;-70
2022/03/02 00:56:06;;;;;;;2.20;1.53;;;13.80;99.90;;;;;;5061546;28;20476;-70
2022/03/02 00:58:39;;;;;;;1.93;1.57;;;13.80;99.90;;;;;;5064371;28;20513;-69
2022/03/02 01:01:10;;;;;;;1.70;1.60;;;13.80;99.90;;;;;;5067080;28;20460;-70
2022/03/02 01:03:41;;;;;;;4.63;2.00;;;13.90;99.90;;;;;;5062771;28;20560;-68
2022/03/02 01:06:13;;;;;;;1.60;1.50;;;13.80;99.90;;;;;;5066172;28;20447;-71
2022/03/02 01:08:43;;;;;;;1.60;1.47;;;13.80;99.90;;;;;;5061868;28;20449;-69
2022/03/02 01:11:14;;;;;;;5.23;1.80;;;13.70;99.90;;;;;;5062688;28;20467;-69
2022/03/02 01:13:48;;;;;;;1.93;1.33;;;13.70;99.90;;;;;;5061436;28;20478;-69
2022/03/02 01:16:19;;;;;;;3.00;1.60;;;13.70;99.90;;;;;;5061550;28;20480;-72
2022/03/02 01:18:50;;;;;;;1.83;1.53;;;13.60;99.90;;;;;;5066750;28;20447;-69
2022/03/02 01:21:21;;;;;;;2.40;1.20;;;13.60;99.90;;;;;;5064719;28;20508;-68
2022/03/02 01:23:53;;;;;;;1.50;1.40;;;13.70;99.90;;;;;;5058197;28;20460;-67
2022/03/02 01:26:26;;;;;;;4.70;2.30;;;13.60;99.90;;;;;;5060598;28;20606;-67
2022/03/02 01:28:58;;;;;;;3.30;3.00;;;13.70;99.90;;;;;;5060476;28;20456;-70
2022/03/02 01:31:29;;;;;;;3.07;2.87;;;13.70;99.90;;;;;;5061452;28;21382;-72
2022/03/02 01:34:01;;;;;;;4.73;4.30;;;13.60;99.90;;;;;;5063693;28;20452;-72
2022/03/02 01:36:32;;;;;;;3.77;3.47;;;13.60;99.90;;;;;;5061485;28;20537;-72
2022/03/02 01:39:02;;;;;;;1.70;1.50;;;13.60;99.90;;;;;;5062685;28;20433;-70
2022/03/02 01:41:34;;;;;;;2.13;1.60;;;13.50;99.90;;;;;;5061398;28;20453;-69
2022/03/02 01:44:07;;;;;;;2.87;2.30;;;13.60;99.90;;;;;;5059240;28;20512;-68
2022/03/02 01:46:38;;;;;;;3.00;1.73;;;13.50;99.90;;;;;;5061244;28;20547;-72
2022/03/02 01:49:09;;;;;;;2.97;1.60;;;13.50;99.90;;;;;;5061144;28;20475;-70
2022/03/02 01:51:41;;;;;;;2.13;1.90;;;13.50;99.90;;;;;;5062688;28;20443;-71
2022/03/02 01:54:12;;;;;;;2.60;2.40;;;13.40;99.90;;;;;;5061159;28;20611;-73
2022/03/02 01:56:43;;;;;;;2.40;2.20;;;13.40;99.90;;;;;;5057648;28;20690;-75
2022/03/02 01:59:15;;;;;;;3.63;2.23;;;13.40;99.90;;;;;;5061053;28;20468;-73
2022/03/02 02:01:46;;;;;;;4.13;1.70;;;13.30;99.90;;;;;;5061118;28;20968;-73
2022/03/02 02:04:17;;;;;;;3.50;2.27;;;13.20;99.90;;;;;;5052966;28;20502;-72
2022/03/02 02:06:49;;;;;;;2.40;2.20;;;13.20;99.90;;;;;;5060704;28;20455;-71
2022/03/02 02:09:19;;;;;;;2.50;2.30;;;13.20;99.90;;;;;;5061672;28;20455;-75
2022/03/02 02:11:50;;;;;;;3.97;2.60;;;13.30;99.90;;;;;;5062004;28;20456;-70
2022/03/02 02:14:23;;;;;;;2.30;2.10;;;13.30;99.90;;;;;;5059686;28;20488;-73
2022/03/02 02:16:54;;;;;;;3.87;2.67;;;13.20;99.90;;;;;;5067401;28;20483;-72
2022/03/02 02:19:26;;;;;;;4.20;2.50;;;13.10;99.90;;;;;;5062123;28;20455;-69
2022/03/02 02:21:58;;;;;;;2.97;2.70;;;13.10;99.90;;;;;;5062555;28;20447;-72
2022/03/02 02:24:30;;;;;;;2.93;2.40;;;13.00;99.90;;;;;;5048613;28;21241;-71
2022/03/02 02:27:02;;;;;;;3.10;2.40;;;13.00;99.90;;;;;;5059513;28;20466;-69
2022/03/02 02:29:38;;;;;;;2.97;2.67;;;13.00;99.90;;;;;;5062559;28;20451;-70
2022/03/02 02:32:09;;;;;;;2.97;2.67;;;13.10;99.90;;;;;;5060372;28;20467;-74
2022/03/02 02:34:40;;;;;;;3.40;3.10;;;13.20;99.90;;;;;;5066415;28;20544;-70
2022/03/02 02:37:13;;;;;;;4.27;3.83;;;13.20;99.90;;;;;;5066706;28;20489;-72
2022/03/02 02:39:54;;;;;;;4.50;3.43;;;13.20;99.90;;;;;;5065197;28;20451;-69
2022/03/02 02:42:25;;;;;;;4.80;3.70;;;13.40;99.90;;;;;;5064934;28;20455;-69
2022/03/02 02:44:57;;;;;;;3.37;3.07;;;13.30;99.90;;;;;;5064779;28;20452;-69
2022/03/02 02:47:28;;;;;;;4.77;3.33;;;13.10;99.90;;;;;;5063749;28;20452;-69
2022/03/02 02:50:00;;;;;;;3.73;3.43;;;13.00;99.90;;;;;;5065040;28;20758;-68
2022/03/02 02:52:40;;;;;;;6.60;5.63;;;13.00;99.90;;;;;;5064644;28;20516;-68
2022/03/02 02:55:11;;;;;;;7.53;6.83;;;13.00;99.90;;;;;;5066010;28;20462;-69
2022/03/02 02:57:42;;;;;;;9.10;7.53;;;13.10;99.90;;;;;;5064338;28;20559;-70
2022/03/02 03:00:15;;;;;;;7.43;6.73;;;13.10;99.90;;;;;;5065766;28;20444;-70
2022/03/02 03:02:48;;;;;;;8.20;7.40;;;13.10;99.90;;;;;;5065027;28;20458;-69
2022/03/02 03:05:21;;;;;;;10.33;7.47;;;13.00;99.90;;;;;;5065545;28;20472;-69
2022/03/02 03:07:55;;;;;;;8.70;7.53;;;13.00;99.90;;;;;;5064998;28;20449;-68
2022/03/02 03:10:27;;;;;;;7.73;7.03;;;13.00;99.90;;;;;;5065813;28;20443;-69
2022/03/02 03:12:58;;;;;;;7.97;7.17;;;13.00;99.90;;;;;;5063913;28;20541;-68
2022/03/02 03:15:29;;;;;;;7.83;7.10;;;13.00;99.90;;;;;;5065422;28;20483;-69
2022/03/02 03:18:00;;;;;;;7.33;6.63;;;13.00;99.90;;;;;;5064761;28;20614;-69
2022/03/02 03:20:32;;;;;;;8.37;6.10;;;13.00;99.90;;;;;;5065051;28;20538;-68
2022/03/02 03:23:06;;;;;;;10.00;6.63;;;12.90;99.90;;;;;;5064536;28;20472;-69
2022/03/02 03:25:37;;;;;;;7.10;5.67;;;13.00;99.90;;;;;;5065613;28;20512;-68
2022/03/02 03:28:09;;;;;;;10.63;6.90;;;12.90;99.90;;;;;;5044803;28;20449;-68
2022/03/02 03:30:42;;;;;;;8.57;6.87;;;12.90;99.90;;;;;;5045223;28;20450;-69
2022/03/02 03:33:13;;;;;;;7.53;6.83;;;12.80;99.90;;;;;;5051934;28;20456;-69
2022/03/02 03:35:44;;;;;;;7.17;5.47;;;12.80;99.90;;;;;;5064816;28;20448;-68
2022/03/02 03:38:18;;;;;;;8.40;6.67;;;12.80;99.90;;;;;;5063997;28;20488;-69
2022/03/02 03:40:49;;;;;;;6.50;5.57;;;12.90;99.90;;;;;;5065332;28;20441;-69
2022/03/02 03:43:20;;;;;;;5.30;4.77;;;12.90;99.90;;;;;;5063821;28;20512;-68
2022/03/02 03:45:51;;;;;;;6.53;4.43;;;12.90;99.90;;;;;;5064458;28;20452;-68
2022/03/02 03:48:22;;;;;;;4.17;3.10;;;12.90;99.90;;;;;;5063511;28;20476;-68
2022/03/02 03:50:53;;;;;;;5.07;4.57;;;12.70;99.90;;;;;;5064529;28;20456;-68
2022/03/02 03:53:25;;;;;;;4.80;4.30;;;12.80;99.90;;;;;;5064309;28;20443;-68
2022/03/02 03:55:57;;;;;;;10.30;4.50;;;12.70;99.90;;;;;;5064938;28;20463;-69
2022/03/02 03:58:28;;;;;;;5.03;4.53;;;12.60;99.90;;;;;;5062895;28;20484;-68
2022/03/02 04:00:58;;;;;;;5.87;4.47;;;12.60;99.90;;;;;;5064400;28;20618;-69
2022/03/02 04:03:29;;;;;;;7.27;4.10;;;12.60;99.90;;;;;;5062349;28;20482;-68
2022/03/02 04:06:01;;;;;;;4.30;3.50;;;12.50;99.90;;;;;;5064305;28;20452;-69
2022/03/02 04:08:33;;;;;;;4.23;3.70;;;12.50;99.90;;;;;;5063243;28;20610;-67
2022/03/02 04:11:04;;;;;;;5.07;3.70;;;12.50;99.90;;;;;;5063236;28;20452;-69
2022/03/02 04:13:35;;;;;;;5.83;3.63;;;12.40;99.90;;;;;;5062044;28;20473;-71
2022/03/02 04:16:06;;;;;;;3.40;3.10;;;12.40;99.90;;;;;;5063324;28;20459;-71
2022/03/02 04:18:38;;;;;;;3.70;3.40;;;12.30;99.90;;;;;;5054435;28;20480;-69
2022/03/02 04:21:09;;;;;;;6.03;3.97;;;12.30;99.90;;;;;;5061056;28;20455;-65
2022/03/02 04:23:41;;;;;;;4.37;3.97;;;12.30;99.90;;;;;;5062207;28;20459;-65
2022/03/02 04:26:12;;;;;;;4.93;4.30;;;12.20;99.90;;;;;;5058834;28;20444;-65
2022/03/02 04:28:43;;;;;;;5.00;4.57;;;12.20;99.90;;;;;;5060902;28;20467;-65
2022/03/02 04:31:14;;;;;;;5.53;4.80;;;12.10;99.90;;;;;;5062544;28;20954;-64
2022/03/02 04:33:45;;;;;;;5.03;4.57;;;12.10;99.90;;;;;;5062404;28;20517;-65
2022/03/02 04:36:16;;;;;;;5.93;5.33;;;12.10;99.90;;;;;;5061168;28;20445;-68
2022/03/02 04:38:48;;;;;;;6.70;5.33;;;12.10;99.90;;;;;;5051042;28;20696;-68
2022/03/02 04:41:19;;;;;;;7.83;7.03;;;12.10;99.90;;;;;;5063476;28;20768;-68
2022/03/02 04:43:50;;;;;;;8.20;7.40;;;12.10;99.90;;;;;;5062099;28;20478;-66
2022/03/02 04:46:21;;;;;;;8.53;7.00;;;12.10;99.90;;;;;;5062198;28;20452;-67
2022/03/02 04:48:52;;;;;;;8.37;7.53;;;12.10;99.90;;;;;;5060960;28;20769;-68
2022/03/02 04:51:23;;;;;;;8.90;7.00;;;12.10;99.90;;;;;;5061968;28;20452;-68
2022/03/02 04:53:55;;;;;;;8.43;6.93;;;12.10;99.90;;;;;;5061701;28;20451;-67
2022/03/02 04:56:26;;;;;;;7.60;6.80;;;12.10;99.90;;;;;;5061825;28;20527;-68
2022/03/02 04:58:58;;;;;;;7.00;5.97;;;12.10;99.90;;;;;;5061687;28;20974;-66
2022/03/02 05:01:29;;;;;;;8.23;7.20;;;12.10;99.90;;;;;;5064423;28;20470;-66
2022/03/02 05:04:00;;;;;;;8.20;6.87;;;12.10;99.90;;;;;;5062486;28;20523;-66
2022/03/02 05:06:31;;;;;;;8.73;7.83;;;12.20;99.90;;;;;;5061613;28;20440;-68
2022/03/02 05:09:04;;;;;;;7.07;6.30;;;12.20;99.90;;;;;;5061225;28;20784;-68
2022/03/02 05:11:38;;;;;;;8.03;7.33;;;12.10;99.90;;;;;;5061676;28;20494;-67
2022/03/02 05:14:09;;;;;;;8.27;7.03;;;12.00;99.90;;;;;;5059734;28;20605;-67
2022/03/02 05:16:44;;;;;;;8.03;6.70;;;12.00;99.90;;;;;;5062557;28;20986;-69
2022/03/02 05:19:17;;;;;;;8.80;7.77;;;12.00;99.90;;;;;;5067264;28;20506;-67
2022/03/02 05:21:49;;;;;;;7.47;6.77;;;12.00;99.90;;;;;;5064477;28;20504;-67
2022/03/02 05:24:21;;;;;;;8.50;7.40;;;12.10;99.90;;;;;;5066204;28;20558;-68
2022/03/02 05:26:55;;;;;;;9.60;7.30;;;12.10;99.90;;;;;;5068603;28;20523;-69
2022/03/02 05:29:26;;;;;;;8.30;7.20;;;12.10;99.90;;;;;;5060905;28;20451;-68
2022/03/02 05:31:57;;;;;;;7.37;6.67;;;12.10;99.90;;;;;;5066883;28;20452;-67
2022/03/02 05:34:28;;;;;;;8.47;6.80;;;12.10;99.90;;;;;;5063974;28;20535;-68
2022/03/02 05:36:59;;;;;;;8.40;6.60;;;12.00;99.90;;;;;;5077328;28;20849;-67
2022/03/02 05:39:32;;;;;;;7.87;6.47;;;12.00;99.90;;;;;;5061833;28;21097;-67
2022/03/02 05:42:04;;;;;;;8.50;5.97;;;12.00;99.90;;;;;;5061965;28;20792;-67
2022/03/02 05:44:36;;;;;;;9.57;6.47;;;12.00;99.90;;;;;;5070981;28;20869;-66
2022/03/02 05:47:10;;;;;;;6.40;5.80;;;11.90;99.90;;;;;;5064315;28;20923;-67
2022/03/02 05:49:43;;;;;;;11.07;7.50;;;11.90;99.90;;;;;;5061058;28;20471;-68
2022/03/02 05:52:24;;;;;;;8.27;7.20;;;11.90;99.90;;;;;;5062614;28;20453;-68
2022/03/02 05:55:01;;;;;;;7.80;7.00;;;11.80;99.90;;;;;;5062386;28;20459;-68
2022/03/02 05:57:51;;;;;;;7.97;7.00;;;11.70;99.90;;;;;;5062320;28;21005;-69
2022/03/02 06:00:29;;;;;;;6.87;6.17;;;11.70;99.90;;;;;;5064792;28;20522;-69
2022/03/02 06:03:04;;;;;;;8.73;6.30;;;11.60;99.90;;;;;;5054941;28;20440;-68
2022/03/02 06:05:40;;;;;;;6.07;5.17;;;11.60;99.90;;;;;;5073550;28;20456;-68
2022/03/02 06:08:11;;;;;;;4.70;4.30;;;11.60;99.90;;;;;;5074900;28;20465;-68
2022/03/02 06:10:44;;;;;;;5.57;4.57;;;11.50;99.90;;;;;;5072575;28;20443;-68
2022/03/02 06:13:15;;;;;;;7.53;4.63;;;11.50;99.90;;;;;;5064908;28;20490;-68
2022/03/02 06:15:47;;;;;;;4.80;4.33;;;11.50;99.90;;;;;;5066927;28;20436;-68
2022/03/02 06:18:18;;;;;;;5.23;4.73;;;11.50;99.90;;;;;;5058159;28;20463;-68
2022/03/02 06:20:52;;;;;;;5.30;4.27;;;11.50;99.90;;;;;;5065973;28;20444;-69
2022/03/02 06:23:24;;;;;;;5.13;4.50;;;11.60;99.90;;;;;;5073225;28;20970;-68
2022/03/02 06:25:57;;;;;;;4.23;3.83;;;11.50;99.90;;;;;;5063477;28;20452;-68
2022/03/02 06:28:28;;;;;;;5.30;4.57;;;11.60;99.90;;;;;;5065044;28;20440;-68
2022/03/02 06:30:59;;;;;;;5.17;4.30;;;11.60;99.90;;;;;;5065868;28;20462;-68
2022/03/02 06:33:30;;;;;;;8.07;4.23;;;11.60;99.90;;;;;;5066254;28;20514;-68
2022/03/02 06:36:01;;;;;;;3.97;3.60;;;11.60;99.90;;;;;;5066544;28;20516;-68
2022/03/02 06:38:32;;;;;;;4.07;3.50;;;11.50;99.90;;;;;;5064729;28;20531;-68
2022/03/02 06:41:12;;;;;;;4.93;4.07;;;11.50;99.90;;;;;;5065781;28;20475;-65
2022/03/02 06:43:48;;;;;;;6.33;3.67;;;11.50;99.90;;;;;;5053770;28;20501;-68
2022/03/02 06:46:29;;;;;;;3.87;3.57;;;11.60;99.90;;;;;;5067678;28;20528;-66
2022/03/02 06:49:06;;;;;;;4.40;3.83;;;11.60;99.90;;;;;;5065517;28;20459;-66
2022/03/02 06:51:45;;;;;;;6.17;3.97;;;11.60;99.90;;;;;;5069924;28;20540;-66
2022/03/02 06:54:20;;;;;;;5.50;4.37;;;11.50;99.90;;;;;;5064303;28;20466;-66
2022/03/02 06:56:56;;;;;;;6.80;4.77;;;11.50;99.90;;;;;;5064940;28;20448;-67
2022/03/02 06:59:32;;;;;;;5.60;4.10;;;11.50;99.90;;;;;;5075810;28;20490;-66
2022/03/02 07:02:05;;;;;;;5.67;4.10;;;11.50;99.90;;;;;;5073991;28;20436;-66
2022/03/02 07:04:39;;;;;;;8.37;3.60;;;11.60;99.90;;;;;;5066619;28;20443;-66
2022/03/02 07:07:11;;;;;;;6.50;4.00;;;11.60;99.90;;;;;;5060768;28;20459;-66
2022/03/02 07:09:43;;;;;;;4.00;3.70;;;11.70;99.90;;;;;;5067117;28;20479;-66
2022/03/02 07:12:16;;;;;;;6.70;4.10;;;11.60;99.90;;;;;;5063430;28;20520;-66
2022/03/02 07:14:48;;;;;;;4.43;4.03;;;11.50;99.90;;;;;;5065404;28;20476;-65
2022/03/02 07:17:19;;;;;;;5.73;4.97;;;11.50;99.90;;;;;;5064913;28;20444;-66
2022/03/02 07:19:50;;;;;;;4.83;4.00;;;11.50;99.90;;;;;;5056016;28;20523;-66
2022/03/02 07:22:23;;;;;;;9.07;5.30;;;11.60;99.90;;;;;;5065495;28;20503;-67
2022/03/02 07:24:55;;;;;;;5.63;3.97;;;11.60;99.90;;;;;;5072584;28;20546;-66
2022/03/02 07:27:33;;;;;;;8.10;4.67;;;11.60;99.90;;;;;;5066463;28;20480;-67
2022/03/02 07:30:05;;;;;;;5.10;3.67;;;11.60;99.90;;;;;;5060298;28;20540;-67
2022/03/02 07:32:41;;;;;;;5.23;4.17;;;11.60;99.90;;;;;;5064676;28;20440;-67
2022/03/02 07:35:12;;;;;;;4.60;4.03;;;11.60;99.90;;;;;;5061749;28;20444;-66
2022/03/02 07:37:44;;;;;;;3.93;3.53;;;11.50;99.90;;;;;;5062873;28;20452;-66
2022/03/02 07:40:16;;;;;;;4.23;3.87;;;11.50;99.90;;;;;;5064124;28;20510;-67
2022/03/02 07:42:48;;;;;;;4.43;4.03;;;11.50;99.90;;;;;;5063248;28;20456;-67
2022/03/02 07:45:20;;;;;;;4.50;4.10;;;11.40;99.90;;;;;;5064430;28;20535;-67
2022/03/02 07:47:51;;;;;;;4.00;3.20;;;11.50;99.90;;;;;;5069058;28;20531;-67
2022/03/02 07:50:22;;;;;;;5.40;3.30;;;11.50;99.90;;;;;;5063430;28;20482;-67
2022/03/02 07:52:54;;;;;;;4.43;4.10;;;11.40;99.90;;;;;;5066906;28;20445;-67
2022/03/02 07:55:25;;;;;;;6.97;4.10;;;11.40;99.90;;;;;;5069774;28;20584;-67
2022/03/02 07:57:58;;;;;;;4.77;3.47;;;11.40;99.90;;;;;;5065639;28;20448;-66
2022/03/02 08:00:28;;;;;;;5.47;3.63;;;11.40;99.90;;;;;;5064681;28;20486;-66
2022/03/02 08:03:02;;;;;;;5.03;3.60;;;11.40;99.90;;;;;;5068787;28;20501;-67
2022/03/02 08:05:34;;;;;;;6.97;3.37;;;11.40;99.90;;;;;;5067923;28;20859;-66
2022/03/02 08:08:06;;;;;;;4.20;3.70;;;11.50;99.90;;;;;;5062056;28;21286;-67
2022/03/02 08:10:36;;;;;;;6.57;2.87;;;11.40;99.90;;;;;;5065232;28;20443;-67
2022/03/02 08:13:09;;;;;;;5.70;3.37;;;11.50;99.90;;;;;;5062509;28;20476;-67
2022/03/02 08:15:42;;;;;;;4.30;2.90;;;11.50;99.90;;;;;;5064507;28;20560;-66
2022/03/02 08:18:13;;;;;;;3.30;2.70;;;11.60;99.90;;;;;;5062996;28;20550;-67
2022/03/02 08:20:59;;;;;;;4.73;2.60;;;11.60;99.90;;;;;;5064843;28;20523;-68
2022/03/02 08:23:37;;;;;;;4.73;3.27;;;11.60;99.90;;;;;;5062411;28;20558;-67
2022/03/02 08:26:08;;;;;;;3.23;2.90;;;11.60;99.90;;;;;;5056428;28;20453;-67
2022/03/02 08:28:45;;;;;;;3.50;3.00;;;11.50;99.90;;;;;;5062923;28;20591;-67
2022/03/02 08:31:16;;;;;;;3.77;2.97;;;11.50;99.90;;;;;;5060663;28;20462;-67
2022/03/02 08:33:47;;;;;;;3.50;2.90;;;11.50;99.90;;;;;;5062916;28;20548;-67
2022/03/02 08:36:21;;;;;;;5.13;3.43;;;11.50;99.90;;;;;;5071618;28;20432;-67
2022/03/02 08:38:54;;;;;;;5.30;3.07;;;11.50;99.90;;;;;;5066247;28;20915;-67
2022/03/02 08:41:30;;;;;;;4.33;3.40;;;11.40;99.90;;;;;;5063758;28;20519;-67
2022/03/02 08:44:03;;;;;;;3.80;3.27;;;11.40;99.90;;;;;;5063830;28;20459;-67
2022/03/02 08:46:34;;;;;;;4.50;2.80;;;11.40;99.90;;;;;;5072250;28;20449;-67
2022/03/02 08:49:05;;;;;;;2.97;2.37;;;11.40;99.90;;;;;;5063416;28;20466;-67
2022/03/02 08:51:39;;;;;;;4.23;2.90;;;11.40;99.90;;;;;;5062439;28;20593;-67
2022/03/02 08:54:13;;;;;;;3.50;2.80;;;11.40;99.90;;;;;;5066010;28;20889;-67
2022/03/02 08:56:43;;;;;;;5.50;2.63;;;11.50;99.90;;;;;;5072338;28;20452;-67
2022/03/02 08:59:18;;;;;;;3.10;2.50;;;11.50;99.90;;;;;;5067169;28;20531;-68
2022/03/02 09:01:53;;;;;;;4.13;2.63;;;11.40;99.90;;;;;;5057587;28;20479;-67
2022/03/02 09:04:27;;;;;;;2.70;2.50;;;11.50;99.90;;;;;;5058102;28;20439;-67
2022/03/02 09:06:59;;;;;;;6.00;2.93;;;11.50;99.90;;;;;;5061711;28;20532;-67
2022/03/02 09:09:30;;;;;;;4.20;2.30;;;11.60;99.90;;;;;;5070335;28;20523;-67
2022/03/02 09:12:02;;;;;;;5.10;3.03;;;11.50;99.90;;;;;;5063447;28;20449;-68
2022/03/02 09:14:35;;;;;;;4.37;3.27;;;11.50;99.90;;;;;;5062582;28;20579;-67
2022/03/02 09:17:06;;;;;;;3.60;2.87;;;11.40;99.90;;;;;;5067717;28;20470;-68
2022/03/02 09:19:38;;;;;;;3.20;3.00;;;11.40;99.90;;;;;;5062398;28;20452;-67
2022/03/02 09:22:10;;;;;;;2.83;2.40;;;11.40;99.90;;;;;;5062140;28;20484;-67
2022/03/02 09:24:42;;;;;;;4.13;2.37;;;11.30;99.90;;;;;;5063432;28;20954;-68
2022/03/02 09:27:13;;;;;;;4.90;3.43;;;11.40;99.90;;;;;;5062183;28;20456;-67
2022/03/02 09:29:48;;;;;;;3.70;2.90;;;11.40;99.90;;;;;;5063571;28;20532;-67
2022/03/02 09:32:24;;;;;;;3.47;2.23;;;11.30;99.90;;;;;;5065845;28;20544;-67
2022/03/02 09:34:57;;;;;;;2.83;2.30;;;11.30;99.90;;;;;;5063522;28;20542;-68
2022/03/02 09:37:30;;;;;;;4.10;2.50;;;11.40;99.90;;;;;;5072133;28;20443;-67
2022/03/02 09:40:04;;;;;;;2.37;2.10;;;11.30;99.90;;;;;;5071736;28;20455;-67
2022/03/02 09:42:41;;;;;;;3.90;2.33;;;11.40;99.90;;;;;;5063052;28;20462;-67
2022/03/02 09:45:14;;;;;;;5.63;2.10;;;11.50;99.90;;;;;;5068897;28;20462;-68
2022/03/02 09:47:46;;;;;;;3.17;2.53;;;11.50;99.90;;;;;;5074498;28;20458;-68
2022/03/02 09:50:19;;;;;;;3.23;2.10;;;11.40;99.90;;;;;;5079217;28;20449;-67
2022/03/02 09:52:50;;;;;;;3.53;2.20;;;11.30;99.90;;;;;;5065722;28;20449;-67
2022/03/02 09:55:23;;;;;;;1.80;1.70;;;11.30;99.90;;;;;;5067700;28;20456;-67
2022/03/02 09:57:56;;;;;;;2.97;1.70;;;11.30;99.90;;;;;;5065179;28;20448;-68
2022/03/02 10:00:30;;;;;;;4.40;2.43;;;11.30;99.90;;;;;;5066626;28;20452;-67
2022/03/02 10:03:02;;;;;;;2.37;2.17;;;11.30;99.90;;;;;;5065397;28;20510;-67
2022/03/02 10:05:35;;;;;;;3.23;2.50;;;11.30;99.90;;;;;;5063602;28;20453;-68
2022/03/02 10:08:07;;;;;;;3.53;2.90;;;11.30;99.90;;;;;;5073201;28;20463;-68
2022/03/02 10:10:41;;;;;;;2.93;2.63;;;11.30;99.90;;;;;;5067153;28;20519;-67
2022/03/02 10:13:14;;;;;;;4.67;2.40;;;11.30;99.90;;;;;;5065692;28;20472;-67
2022/03/02 10:15:48;;;;;;;2.90;2.70;;;11.20;99.90;;;;;;5071764;28;20469;-67
2022/03/02 10:18:20;;;;;;;5.00;3.13;;;11.30;99.90;;;;;;5064244;28;20440;-68
2022/03/02 10:20:53;;;;;;;4.10;2.17;;;11.30;99.90;;;;;;5055799;28;20490;-68
2022/03/02 10:23:36;;;;;;;3.00;2.23;;;11.30;99.90;;;;;;5065273;28;20458;-67
2022/03/02 10:26:11;;;;;;;2.73;2.10;;;11.30;99.90;;;;;;5069036;28;20496;-67
2022/03/02 10:28:47;;;;;;;3.27;2.03;;;11.30;99.90;;;;;;5066841;28;20436;-67
2022/03/02 10:31:47;;;;;;;3.67;1.80;;;11.30;99.90;;;;;;5065715;28;20458;-67
2022/03/02 10:34:38;;;;;;;2.70;2.07;;;11.30;99.90;;;;;;5068677;28;20456;-67
2022/03/02 10:37:32;;;;;;;3.20;2.73;;;11.30;99.90;;;;;;5080821;28;20467;-67
2022/03/02 10:40:09;;;;;;;3.93;2.90;;;11.30;99.90;;;;;;5072321;28;20474;-67
2022/03/02 10:42:42;;;;;;;4.03;2.30;;;11.30;99.90;;;;;;5065187;28;20492;-67
2022/03/02 10:45:18;;;;;;;3.93;2.60;;;11.40;99.90;;;;;;5065228;28;20462;-67
2022/03/02 10:48:04;;;;;;;3.93;2.13;;;11.40;99.90;;;;;;5065747;28;20451;-67
2022/03/02 10:50:37;;;;;;;3.13;2.37;;;11.40;99.90;;;;;;5065265;28;21034;-66
2022/03/02 10:53:13;;;;;;;3.40;2.40;;;11.30;99.90;;;;;;5063811;28;20463;-66
2022/03/02 10:55:46;;;;;;;3.67;2.70;;;11.30;99.90;;;;;;5063933;28;20915;-67
2022/03/02 10:58:19;;;;;;;3.47;2.60;;;11.30;99.90;;;;;;5063652;28;20460;-66
2022/03/02 11:00:50;;;;;;;4.27;2.40;;;11.30;99.90;;;;;;5064898;28;20898;-66
2022/03/02 11:03:23;;;;;;;4.53;2.00;;;11.30;99.90;;;;;;5073153;28;20474;-66
2022/03/02 11:05:57;;;;;;;4.20;2.70;;;11.30;99.90;;;;;;5062763;28;20513;-66
2022/03/02 11:08:32;;;;;;;6.30;3.27;;;11.20;99.90;;;;;;5065944;28;20485;-67
2022/03/02 11:11:03;;;;;;;5.80;3.03;;;11.10;99.90;;;;;;5065899;28;20444;-68
2022/03/02 11:13:34;;;;;;;3.53;2.83;;;11.10;99.90;;;;;;5061229;28;20484;-67
2022/03/02 11:16:07;;;;;;;4.60;3.47;;;11.20;99.90;;;;;;5059989;28;20452;-67
2022/03/02 11:18:42;;;;;;;4.20;3.20;;;11.10;99.90;;;;;;5068896;28;20924;-67
2022/03/02 11:21:20;;;;;;;4.90;3.40;;;11.20;99.90;;;;;;5065015;28;20971;-67
2022/03/02 11:23:52;;;;;;;5.70;3.73;;;11.20;99.90;;;;;;5063144;28;20441;-66
2022/03/02 11:26:26;;;;;;;5.20;4.70;;;11.30;99.90;;;;;;5065557;28;20451;-67
2022/03/02 11:28:58;;;;;;;5.70;5.10;;;11.20;99.90;;;;;;5064375;28;20574;-67
2022/03/02 11:31:31;;;;;;;9.40;7.10;;;11.20;99.90;;;;;;5052686;28;20463;-67
2022/03/02 11:34:17;;;;;;;9.80;7.00;;;11.20;99.90;;;;;;5068117;28;20456;-67
2022/03/02 11:36:50;;;;;;;10.43;7.40;;;11.30;99.90;;;;;;5060145;28;20993;-67
2022/03/02 11:39:22;;;;;;;9.07;7.23;;;11.20;99.90;;;;;;5076886;28;20502;-67
2022/03/02 11:41:58;;;;;;;10.60;7.20;;;11.10;99.90;;;;;;5063890;28;20755;-67
2022/03/02 11:44:31;;;;;;;7.90;7.03;;;11.20;99.90;;;;;;5063892;28;20568;-67
2022/03/02 11:47:02;;;;;;;8.60;7.07;;;11.10;99.90;;;;;;5067056;28;20670;-67
2022/03/02 11:49:43;;;;;;;11.03;8.03;;;11.10;99.90;;;;;;5053313;28;20476;-67
2022/03/02 11:52:19;;;;;;;8.90;7.77;;;11.20;99.90;;;;;;5064019;28;20464;-66
2022/03/02 11:54:52;;;;;;;13.20;8.00;;;11.20;99.90;;;;;;5064088;28;20444;-66
2022/03/02 11:57:25;;;;;;;10.37;7.90;;;11.20;99.90;;;;;;5068003;28;20463;-66
2022/03/02 12:00:10;;;;;;;11.63;8.30;;;11.20;99.90;;;;;;5066201;28;20461;-66
2022/03/02 12:02:46;;;;;;;9.00;8.03;;;11.20;99.90;;;;;;5064535;28;20492;-67
2022/03/02 12:05:20;;;;;;;8.50;7.20;;;11.20;99.90;;;;;;5062566;28;20831;-67
2022/03/02 12:07:53;;;;;;;8.73;7.87;;;11.10;99.90;;;;;;5060214;28;20463;-66
2022/03/02 12:10:26;;;;;;;26.53;9.27;;;11.00;99.90;;;;;;5063784;28;20547;-65
2022/03/02 12:12:57;;;;;;;11.50;8.80;;;11.00;99.90;;;;;;5067590;28;20459;-65
2022/03/02 12:15:45;;;;;;;13.10;8.20;;;11.10;99.90;;;;;;5058403;28;20452;-65
2022/03/02 12:18:18;;;;;;;12.50;8.63;;;11.20;99.90;;;;;;5056682;28;20452;-66
2022/03/02 12:20:53;;;;;;;11.13;8.67;;;11.10;99.90;;;;;;5063490;28;20448;-66
2022/03/02 12:23:26;;;;;;;13.50;8.80;;;11.00;99.90;;;;;;5066045;28;20490;-66
2022/03/02 12:25:59;;;;;;;13.37;8.97;;;11.00;99.90;;;;;;5063732;28;20570;-65
2022/03/02 12:28:30;;;;;;;12.10;9.03;;;11.00;99.90;;;;;;5063621;28;20456;-65
2022/03/02 12:31:01;;;;;;;14.57;10.00;;;11.10;99.90;;;;;;5063890;28;20611;-66
2022/03/02 12:33:33;;;;;;;11.87;8.93;;;11.00;99.90;;;;;;5063325;28;20437;-67
2022/03/02 12:36:26;;;;;;;12.60;8.63;;;11.10;99.90;;;;;;5057974;28;20455;-67
2022/03/02 12:39:12;;;;;;;13.63;9.13;;;11.00;99.90;;;;;;5063229;28;20449;-66
2022/03/02 12:41:43;;;;;;;12.33;9.10;;;11.00;99.90;;;;;;5063355;28;20449;-66
2022/03/02 12:44:14;;;;;;;14.57;9.57;;;11.00;99.90;;;;;;5062812;28;20472;-66
2022/03/02 12:46:45;;;;;;;11.80;8.40;;;11.00;99.90;;;;;;5063936;28;20444;-67
2022/03/02 12:49:16;;;;;;;9.37;7.20;;;10.90;99.90;;;;;;5062825;28;20436;-66
2022/03/02 12:51:49;;;;;;;9.93;7.93;;;10.80;99.90;;;;;;5063890;28;20983;-67
2022/03/02 12:54:20;;;;;;;11.43;8.10;;;10.90;99.90;;;;;;5066781;28;20563;-67
2022/03/02 12:56:51;;;;;;;12.03;7.63;;;10.90;99.90;;;;;;5071414;28;20453;-66
2022/03/02 12:59:22;;;;;;;7.50;6.37;;;11.00;99.90;;;;;;5063677;28;20454;-67
2022/03/02 13:01:54;;;;;;;10.90;8.20;;;11.00;99.90;;;;;;5062810;28;20452;-67
2022/03/02 13:04:32;;;;;;;10.03;7.57;;;10.90;99.90;;;;;;5062237;28;20479;-67
2022/03/02 13:07:11;;;;;;;8.90;6.70;;;10.90;99.90;;;;;;5061452;28;20452;-67
2022/03/02 13:09:50;;;;;;;9.60;7.23;;;10.90;99.90;;;;;;5073922;28;20437;-67
2022/03/02 13:12:34;;;;;;;7.73;6.23;;;10.90;99.90;;;;;;5053283;28;20466;-67
2022/03/02 13:15:24;;;;;;;9.07;6.80;;;10.80;99.90;;;;;;5060053;28;20493;-67